Pagrindinis puslapis
METAR-TAF:

METAR-TAF

Oro uostai :

Bad Vöslau, Austrija

platuma: 47-57-52N, ilguma: 016-15-34E, Aukštis: 233 m

Dabartinis oras

Ataskaita buvo paskelbta 46 minutes, ne 12:00 UTC
Vėjas 5 kt iš Rytų/Šiaurės Rytų
Temperatūra 13°C
Drėgmė 77%
Slėgis
Matomumas: 7000 m
Giedras dangus

METAR: LOAV 251200Z 07005KT 7000 SKC 13/09

Laikas: 13:46 (12:46 UTC)

Prognozė

Ataskaita buvo paskelbta 1 valandą ir 21 minutes, ne 11:25 UTC
Prognozė galioja nuo 25 metu 12 UTC su 25 metu 21 UTC
Vėjas 5 kt iš Šiaurės Rytų
Matomumas 10 km arba daugiau
Giedras dangus

TAF: LOAV 251125Z 2512/2521 05005KT 9999 SKC

Orai ataskaitas ir orų prognozės (METAR, TAF).

turimą stotys yra geltonos ir raudonos taškus žemėlapyje.

Perkelti pele per norėdami pamatyti stoties vardą.

Tada spustelėkite, norėdami matyti oro stebėjimo ir prognozės.

Norėdami pakeisti žemėlapį: spustelėkite ant žalios mygtukų su juodo kryžiaus žemyn,; žalią mygtuką su brūkšneliu, jei norite nutolinti; arba žalių rodyklių gretimoms žemėlapius.


METAR-TAF: